Saint Leonard, Maryland
Current Conditions -  °F | °C
As of 8:16 PM on Friday 24 Oct 2014 (Local Time) from K2W6 Reporting Station
Clear Clear  
Wind Chill: 52°   Ceiling: Unl
Heat Index: 52°   Visibility: 10mi
Dew Point: 41°   Wind: 5mph
Humidity: 67%   Direction: 260°W
Pressure: 29.94"   Gusts: NA
Location:  38.47°N, 76.51°W
Report Text: K2W6 250016Z AUTO 26004KT 10SM CLR 11/05 A2994 RMK AO1
Loading
Personal Weather Stations






























Interactive Weather Map
Tropical Storm Tracking
New forecast layout! Learn more

10-Day Weather Forecast

Advertisements
Track Severe Weather on mobile